sensor_id;sensor_type;location;lat;lon;timestamp;temperature;humidity
46029;DHT22;31763;48.180;7.904;2024-03-17T00:24:46;8.40;99.90
46029;DHT22;31763;48.180;7.904;2024-03-17T00:27:12;8.50;99.90
46029;DHT22;31763;48.180;7.904;2024-03-17T00:29:39;8.40;99.90
46029;DHT22;31763;48.180;7.904;2024-03-17T00:32:06;8.40;99.90
46029;DHT22;31763;48.180;7.904;2024-03-17T00:34:32;8.40;99.90
46029;DHT22;31763;48.180;7.904;2024-03-17T00:36:58;8.50;99.90
46029;DHT22;31763;48.180;7.904;2024-03-17T00:39:25;8.40;99.90
46029;DHT22;31763;48.180;7.904;2024-03-17T00:41:51;8.40;99.90
46029;DHT22;31763;48.180;7.904;2024-03-17T00:44:17;8.30;99.90
46029;DHT22;31763;48.180;7.904;2024-03-17T00:46:43;8.20;99.90
46029;DHT22;31763;48.180;7.904;2024-03-17T00:49:09;8.40;99.90
46029;DHT22;31763;48.180;7.904;2024-03-17T00:51:36;8.30;99.90
46029;DHT22;31763;48.180;7.904;2024-03-17T00:54:02;8.30;99.90
46029;DHT22;31763;48.180;7.904;2024-03-17T00:56:28;8.40;99.90
46029;DHT22;31763;48.180;7.904;2024-03-17T00:58:54;8.70;99.90
46029;DHT22;31763;48.180;7.904;2024-03-17T01:01:20;8.70;99.90
46029;DHT22;31763;48.180;7.904;2024-03-17T01:03:46;8.70;99.90
46029;DHT22;31763;48.180;7.904;2024-03-17T01:06:12;8.80;99.90
46029;DHT22;31763;48.180;7.904;2024-03-17T01:08:38;8.70;99.90
46029;DHT22;31763;48.180;7.904;2024-03-17T01:11:04;8.70;99.90
46029;DHT22;31763;48.180;7.904;2024-03-17T01:13:34;8.70;99.90
46029;DHT22;31763;48.180;7.904;2024-03-17T01:16:03;8.70;99.90
46029;DHT22;31763;48.180;7.904;2024-03-17T01:18:29;8.70;99.90
46029;DHT22;31763;48.180;7.904;2024-03-17T01:20:55;8.60;99.90
46029;DHT22;31763;48.180;7.904;2024-03-17T01:23:21;8.70;99.90
46029;DHT22;31763;48.180;7.904;2024-03-17T01:25:47;8.70;99.90
46029;DHT22;31763;48.180;7.904;2024-03-17T01:28:13;8.70;99.90
46029;DHT22;31763;48.180;7.904;2024-03-17T01:30:39;8.70;99.90
46029;DHT22;31763;48.180;7.904;2024-03-17T01:33:06;8.80;99.90
46029;DHT22;31763;48.180;7.904;2024-03-17T01:35:32;8.80;99.90
46029;DHT22;31763;48.180;7.904;2024-03-17T01:37:58;8.80;99.90
46029;DHT22;31763;48.180;7.904;2024-03-17T01:40:24;8.70;99.90
46029;DHT22;31763;48.180;7.904;2024-03-17T01:42:50;8.70;99.90
46029;DHT22;31763;48.180;7.904;2024-03-17T01:45:31;8.70;99.90
46029;DHT22;31763;48.180;7.904;2024-03-17T01:48:00;8.80;99.90
46029;DHT22;31763;48.180;7.904;2024-03-17T01:50:31;8.80;99.90
46029;DHT22;31763;48.180;7.904;2024-03-17T01:53:02;8.80;99.90
46029;DHT22;31763;48.180;7.904;2024-03-17T01:55:32;8.90;99.90
46029;DHT22;31763;48.180;7.904;2024-03-17T01:57:59;8.90;99.90
46029;DHT22;31763;48.180;7.904;2024-03-17T02:00:25;8.90;99.90
46029;DHT22;31763;48.180;7.904;2024-03-17T02:02:52;8.80;99.90
46029;DHT22;31763;48.180;7.904;2024-03-17T02:05:18;8.80;99.90
46029;DHT22;31763;48.180;7.904;2024-03-17T02:07:44;8.80;99.90
46029;DHT22;31763;48.180;7.904;2024-03-17T02:10:10;8.70;99.90
46029;DHT22;31763;48.180;7.904;2024-03-17T02:12:38;8.60;99.90
46029;DHT22;31763;48.180;7.904;2024-03-17T02:15:04;8.70;99.90
46029;DHT22;31763;48.180;7.904;2024-03-17T02:17:31;8.70;99.90
46029;DHT22;31763;48.180;7.904;2024-03-17T02:19:58;8.80;99.90
46029;DHT22;31763;48.180;7.904;2024-03-17T02:22:24;8.80;99.90
46029;DHT22;31763;48.180;7.904;2024-03-17T02:24:51;8.80;99.90
46029;DHT22;31763;48.180;7.904;2024-03-17T02:27:16;8.50;99.90
46029;DHT22;31763;48.180;7.904;2024-03-17T02:29:42;8.20;99.90
46029;DHT22;31763;48.180;7.904;2024-03-17T02:32:09;8.10;99.90
46029;DHT22;31763;48.180;7.904;2024-03-17T02:34:35;8.50;99.90
46029;DHT22;31763;48.180;7.904;2024-03-17T02:37:02;8.60;99.90
46029;DHT22;31763;48.180;7.904;2024-03-17T02:39:30;8.50;99.90
46029;DHT22;31763;48.180;7.904;2024-03-17T02:42:01;8.50;99.90
46029;DHT22;31763;48.180;7.904;2024-03-17T02:44:29;8.60;99.90
46029;DHT22;31763;48.180;7.904;2024-03-17T02:46:56;8.60;99.90
46029;DHT22;31763;48.180;7.904;2024-03-17T02:49:24;8.50;99.90
46029;DHT22;31763;48.180;7.904;2024-03-17T02:51:50;8.40;99.90
46029;DHT22;31763;48.180;7.904;2024-03-17T02:54:16;8.40;99.90
46029;DHT22;31763;48.180;7.904;2024-03-17T02:56:42;8.50;99.90
46029;DHT22;31763;48.180;7.904;2024-03-17T02:59:08;8.50;99.90
46029;DHT22;31763;48.180;7.904;2024-03-17T03:01:34;8.70;99.90
46029;DHT22;31763;48.180;7.904;2024-03-17T03:04:00;8.70;99.90
46029;DHT22;31763;48.180;7.904;2024-03-17T03:06:26;8.70;99.90
46029;DHT22;31763;48.180;7.904;2024-03-17T03:08:52;8.80;99.90
46029;DHT22;31763;48.180;7.904;2024-03-17T03:11:18;8.70;99.90
46029;DHT22;31763;48.180;7.904;2024-03-17T03:13:44;8.70;99.90
46029;DHT22;31763;48.180;7.904;2024-03-17T03:16:11;8.70;99.90
46029;DHT22;31763;48.180;7.904;2024-03-17T03:18:40;8.70;99.90
46029;DHT22;31763;48.180;7.904;2024-03-17T03:21:06;8.40;99.90
46029;DHT22;31763;48.180;7.904;2024-03-17T03:23:33;8.50;99.90
46029;DHT22;31763;48.180;7.904;2024-03-17T03:26:00;8.50;99.90
46029;DHT22;31763;48.180;7.904;2024-03-17T03:28:31;8.50;99.90
46029;DHT22;31763;48.180;7.904;2024-03-17T03:30:59;8.50;99.90
46029;DHT22;31763;48.180;7.904;2024-03-17T03:33:25;8.50;99.90
46029;DHT22;31763;48.180;7.904;2024-03-17T03:35:51;8.50;99.90
46029;DHT22;31763;48.180;7.904;2024-03-17T03:38:18;8.50;99.90
46029;DHT22;31763;48.180;7.904;2024-03-17T03:40:45;8.50;99.90
46029;DHT22;31763;48.180;7.904;2024-03-17T03:43:13;8.50;99.90
46029;DHT22;31763;48.180;7.904;2024-03-17T03:45:40;8.50;99.90
46029;DHT22;31763;48.180;7.904;2024-03-17T03:48:07;8.60;99.90
46029;DHT22;31763;48.180;7.904;2024-03-17T03:50:40;8.50;99.90
46029;DHT22;31763;48.180;7.904;2024-03-17T03:53:06;8.50;99.90
46029;DHT22;31763;48.180;7.904;2024-03-17T03:55:32;8.40;99.90
46029;DHT22;31763;48.180;7.904;2024-03-17T03:57:58;8.30;99.90
46029;DHT22;31763;48.180;7.904;2024-03-17T04:00:24;8.40;99.90
46029;DHT22;31763;48.180;7.904;2024-03-17T04:02:55;8.30;99.90
46029;DHT22;31763;48.180;7.904;2024-03-17T04:05:21;8.30;99.90
46029;DHT22;31763;48.180;7.904;2024-03-17T04:07:47;8.30;99.90
46029;DHT22;31763;48.180;7.904;2024-03-17T04:10:15;8.20;99.90
46029;DHT22;31763;48.180;7.904;2024-03-17T04:12:41;8.20;99.90
46029;DHT22;31763;48.180;7.904;2024-03-17T04:15:08;8.20;99.90
46029;DHT22;31763;48.180;7.904;2024-03-17T04:17:36;8.10;99.90
46029;DHT22;31763;48.180;7.904;2024-03-17T04:20:04;8.10;99.90
46029;DHT22;31763;48.180;7.904;2024-03-17T04:22:33;8.10;99.90
46029;DHT22;31763;48.180;7.904;2024-03-17T04:24:59;8.20;99.90
46029;DHT22;31763;48.180;7.904;2024-03-17T04:27:26;8.20;99.90
46029;DHT22;31763;48.180;7.904;2024-03-17T04:29:53;8.10;99.90
46029;DHT22;31763;48.180;7.904;2024-03-17T04:32:20;8.10;99.90
46029;DHT22;31763;48.180;7.904;2024-03-17T04:34:47;8.10;99.90
46029;DHT22;31763;48.180;7.904;2024-03-17T04:37:13;8.10;99.90
46029;DHT22;31763;48.180;7.904;2024-03-17T04:39:40;8.10;99.90
46029;DHT22;31763;48.180;7.904;2024-03-17T04:42:09;8.10;99.90
46029;DHT22;31763;48.180;7.904;2024-03-17T04:44:35;8.00;99.90
46029;DHT22;31763;48.180;7.904;2024-03-17T04:47:01;8.00;99.90
46029;DHT22;31763;48.180;7.904;2024-03-17T04:49:36;8.00;99.90
46029;DHT22;31763;48.180;7.904;2024-03-17T04:52:03;8.00;99.90
46029;DHT22;31763;48.180;7.904;2024-03-17T04:54:31;8.00;99.90
46029;DHT22;31763;48.180;7.904;2024-03-17T04:56:57;8.00;99.90
46029;DHT22;31763;48.180;7.904;2024-03-17T04:59:23;8.00;99.90
46029;DHT22;31763;48.180;7.904;2024-03-17T05:01:49;8.10;99.90
46029;DHT22;31763;48.180;7.904;2024-03-17T05:04:15;8.00;99.90
46029;DHT22;31763;48.180;7.904;2024-03-17T05:06:41;8.00;99.90
46029;DHT22;31763;48.180;7.904;2024-03-17T05:09:13;7.90;99.90
46029;DHT22;31763;48.180;7.904;2024-03-17T05:11:39;7.90;99.90
46029;DHT22;31763;48.180;7.904;2024-03-17T05:14:06;7.90;99.90
46029;DHT22;31763;48.180;7.904;2024-03-17T05:16:32;8.00;99.90
46029;DHT22;31763;48.180;7.904;2024-03-17T05:18:58;8.00;99.90
46029;DHT22;31763;48.180;7.904;2024-03-17T05:21:23;8.00;99.90
46029;DHT22;31763;48.180;7.904;2024-03-17T05:23:52;7.90;99.90
46029;DHT22;31763;48.180;7.904;2024-03-17T05:26:18;7.90;99.90
46029;DHT22;31763;48.180;7.904;2024-03-17T05:28:44;7.80;99.90
46029;DHT22;31763;48.180;7.904;2024-03-17T05:31:10;7.80;99.90
46029;DHT22;31763;48.180;7.904;2024-03-17T05:33:40;7.90;99.90
46029;DHT22;31763;48.180;7.904;2024-03-17T05:36:06;7.90;99.90
46029;DHT22;31763;48.180;7.904;2024-03-17T05:38:32;7.90;99.90
46029;DHT22;31763;48.180;7.904;2024-03-17T05:40:59;7.90;99.90
46029;DHT22;31763;48.180;7.904;2024-03-17T05:43:31;8.00;99.90
46029;DHT22;31763;48.180;7.904;2024-03-17T05:46:02;7.90;99.90
46029;DHT22;31763;48.180;7.904;2024-03-17T05:48:32;7.90;99.90
46029;DHT22;31763;48.180;7.904;2024-03-17T05:51:01;7.90;99.90
46029;DHT22;31763;48.180;7.904;2024-03-17T05:53:28;8.00;99.90
46029;DHT22;31763;48.180;7.904;2024-03-17T05:55:54;8.10;99.90
46029;DHT22;31763;48.180;7.904;2024-03-17T05:58:21;8.10;99.90
46029;DHT22;31763;48.180;7.904;2024-03-17T06:00:48;8.00;99.90
46029;DHT22;31763;48.180;7.904;2024-03-17T06:03:14;8.10;99.90
46029;DHT22;31763;48.180;7.904;2024-03-17T06:05:41;8.10;99.90
46029;DHT22;31763;48.180;7.904;2024-03-17T06:08:07;8.00;99.90
46029;DHT22;31763;48.180;7.904;2024-03-17T06:10:35;8.00;99.90
46029;DHT22;31763;48.180;7.904;2024-03-17T06:13:02;8.00;99.90
46029;DHT22;31763;48.180;7.904;2024-03-17T06:15:29;7.90;99.90
46029;DHT22;31763;48.180;7.904;2024-03-17T06:17:56;7.90;99.90
46029;DHT22;31763;48.180;7.904;2024-03-17T06:20:23;7.90;99.90
46029;DHT22;31763;48.180;7.904;2024-03-17T06:22:53;7.70;99.90
46029;DHT22;31763;48.180;7.904;2024-03-17T06:25:19;7.80;99.90
46029;DHT22;31763;48.180;7.904;2024-03-17T06:27:45;7.80;99.90
46029;DHT22;31763;48.180;7.904;2024-03-17T06:30:14;7.70;99.90
46029;DHT22;31763;48.180;7.904;2024-03-17T06:32:42;7.70;99.90
46029;DHT22;31763;48.180;7.904;2024-03-17T06:35:14;7.60;99.90
46029;DHT22;31763;48.180;7.904;2024-03-17T06:37:51;7.70;99.90
46029;DHT22;31763;48.180;7.904;2024-03-17T06:40:18;7.80;99.90
46029;DHT22;31763;48.180;7.904;2024-03-17T06:42:44;7.80;99.90
46029;DHT22;31763;48.180;7.904;2024-03-17T06:45:10;7.80;99.90
46029;DHT22;31763;48.180;7.904;2024-03-17T06:47:37;7.80;99.90
46029;DHT22;31763;48.180;7.904;2024-03-17T06:50:06;7.80;99.90
46029;DHT22;31763;48.180;7.904;2024-03-17T06:52:36;7.80;99.90
46029;DHT22;31763;48.180;7.904;2024-03-17T06:55:02;7.80;99.90
46029;DHT22;31763;48.180;7.904;2024-03-17T06:57:28;7.80;99.90
46029;DHT22;31763;48.180;7.904;2024-03-17T06:59:54;7.90;99.90
46029;DHT22;31763;48.180;7.904;2024-03-17T07:02:20;7.90;99.90
46029;DHT22;31763;48.180;7.904;2024-03-17T07:04:47;8.00;99.90
46029;DHT22;31763;48.180;7.904;2024-03-17T07:07:13;8.10;99.90
46029;DHT22;31763;48.180;7.904;2024-03-17T07:09:40;8.20;99.90
46029;DHT22;31763;48.180;7.904;2024-03-17T07:12:10;8.10;99.90
46029;DHT22;31763;48.180;7.904;2024-03-17T07:14:37;8.20;99.90
46029;DHT22;31763;48.180;7.904;2024-03-17T07:17:03;8.20;99.90
46029;DHT22;31763;48.180;7.904;2024-03-17T07:19:29;8.20;99.90
46029;DHT22;31763;48.180;7.904;2024-03-17T07:21:57;8.30;99.90
46029;DHT22;31763;48.180;7.904;2024-03-17T07:24:23;8.30;99.90
46029;DHT22;31763;48.180;7.904;2024-03-17T07:26:49;8.30;99.90
46029;DHT22;31763;48.180;7.904;2024-03-17T07:29:16;8.30;99.90
46029;DHT22;31763;48.180;7.904;2024-03-17T07:31:44;8.30;99.90
46029;DHT22;31763;48.180;7.904;2024-03-17T07:34:10;8.30;99.90
46029;DHT22;31763;48.180;7.904;2024-03-17T07:36:36;8.30;99.90
46029;DHT22;31763;48.180;7.904;2024-03-17T07:39:02;8.60;99.90
46029;DHT22;31763;48.180;7.904;2024-03-17T07:41:28;8.70;99.90
46029;DHT22;31763;48.180;7.904;2024-03-17T07:43:54;8.60;99.90
46029;DHT22;31763;48.180;7.904;2024-03-17T07:46:20;8.70;99.90
46029;DHT22;31763;48.180;7.904;2024-03-17T07:48:46;8.70;99.90
46029;DHT22;31763;48.180;7.904;2024-03-17T07:51:14;8.70;99.90
46029;DHT22;31763;48.180;7.904;2024-03-17T07:53:43;8.70;99.90
46029;DHT22;31763;48.180;7.904;2024-03-17T07:56:12;8.70;99.90
46029;DHT22;31763;48.180;7.904;2024-03-17T07:58:41;8.60;99.90
46029;DHT22;31763;48.180;7.904;2024-03-17T08:01:10;8.60;99.90
46029;DHT22;31763;48.180;7.904;2024-03-17T08:03:45;8.60;99.90
46029;DHT22;31763;48.180;7.904;2024-03-17T08:06:12;8.70;99.90
46029;DHT22;31763;48.180;7.904;2024-03-17T08:08:38;9.00;99.90
46029;DHT22;31763;48.180;7.904;2024-03-17T08:11:04;9.00;99.90
46029;DHT22;31763;48.180;7.904;2024-03-17T08:13:30;9.10;99.90
46029;DHT22;31763;48.180;7.904;2024-03-17T08:16:02;9.20;99.90
46029;DHT22;31763;48.180;7.904;2024-03-17T08:18:32;9.10;99.90
46029;DHT22;31763;48.180;7.904;2024-03-17T08:21:00;9.10;99.90
46029;DHT22;31763;48.180;7.904;2024-03-17T08:23:27;9.00;99.90
46029;DHT22;31763;48.180;7.904;2024-03-17T08:25:54;9.00;99.90
46029;DHT22;31763;48.180;7.904;2024-03-17T08:28:24;9.00;99.90
46029;DHT22;31763;48.180;7.904;2024-03-17T08:30:55;9.00;99.90
46029;DHT22;31763;48.180;7.904;2024-03-17T08:33:22;9.10;99.90
46029;DHT22;31763;48.180;7.904;2024-03-17T08:36:06;9.10;99.90
46029;DHT22;31763;48.180;7.904;2024-03-17T08:38:34;9.20;99.90
46029;DHT22;31763;48.180;7.904;2024-03-17T08:41:04;9.20;99.90
46029;DHT22;31763;48.180;7.904;2024-03-17T08:43:32;9.20;99.90
46029;DHT22;31763;48.180;7.904;2024-03-17T08:45:59;9.30;99.90
46029;DHT22;31763;48.180;7.904;2024-03-17T08:48:27;9.40;99.90
46029;DHT22;31763;48.180;7.904;2024-03-17T08:50:55;9.40;99.90
46029;DHT22;31763;48.180;7.904;2024-03-17T08:53:22;9.40;99.90
46029;DHT22;31763;48.180;7.904;2024-03-17T08:55:48;9.50;99.90
46029;DHT22;31763;48.180;7.904;2024-03-17T08:58:15;9.50;99.90
46029;DHT22;31763;48.180;7.904;2024-03-17T09:00:41;9.40;99.90
46029;DHT22;31763;48.180;7.904;2024-03-17T09:03:08;9.50;99.90
46029;DHT22;31763;48.180;7.904;2024-03-17T09:05:42;9.50;99.90
46029;DHT22;31763;48.180;7.904;2024-03-17T09:08:18;9.40;99.90
46029;DHT22;31763;48.180;7.904;2024-03-17T09:10:47;9.30;99.90
46029;DHT22;31763;48.180;7.904;2024-03-17T09:13:21;9.30;99.90
46029;DHT22;31763;48.180;7.904;2024-03-17T09:15:59;9.30;99.90
46029;DHT22;31763;48.180;7.904;2024-03-17T09:18:30;9.30;99.90
46029;DHT22;31763;48.180;7.904;2024-03-17T09:21:07;9.30;99.90
46029;DHT22;31763;48.180;7.904;2024-03-17T09:23:34;9.30;99.90
46029;DHT22;31763;48.180;7.904;2024-03-17T09:26:02;9.30;99.90
46029;DHT22;31763;48.180;7.904;2024-03-17T09:28:30;9.40;99.90
46029;DHT22;31763;48.180;7.904;2024-03-17T09:30:57;9.50;99.90
46029;DHT22;31763;48.180;7.904;2024-03-17T09:33:25;9.50;99.90
46029;DHT22;31763;48.180;7.904;2024-03-17T09:35:58;9.50;99.90
46029;DHT22;31763;48.180;7.904;2024-03-17T09:38:26;9.70;99.90
46029;DHT22;31763;48.180;7.904;2024-03-17T09:40:53;9.80;99.90
46029;DHT22;31763;48.180;7.904;2024-03-17T09:43:32;9.90;99.90
46029;DHT22;31763;48.180;7.904;2024-03-17T09:46:01;9.90;99.90
46029;DHT22;31763;48.180;7.904;2024-03-17T09:48:28;9.90;99.90
46029;DHT22;31763;48.180;7.904;2024-03-17T09:50:56;9.80;99.90
46029;DHT22;31763;48.180;7.904;2024-03-17T09:53:26;9.90;99.90
46029;DHT22;31763;48.180;7.904;2024-03-17T09:58:31;9.90;99.90
46029;DHT22;31763;48.180;7.904;2024-03-17T10:00:57;9.90;99.90
46029;DHT22;31763;48.180;7.904;2024-03-17T10:03:53;10.00;99.90
46029;DHT22;31763;48.180;7.904;2024-03-17T10:06:23;10.00;99.90
46029;DHT22;31763;48.180;7.904;2024-03-17T10:08:50;9.90;99.90
46029;DHT22;31763;48.180;7.904;2024-03-17T10:11:24;9.80;99.90
46029;DHT22;31763;48.180;7.904;2024-03-17T10:14:02;9.90;99.90
46029;DHT22;31763;48.180;7.904;2024-03-17T10:16:31;9.90;99.90
46029;DHT22;31763;48.180;7.904;2024-03-17T10:19:11;10.00;99.90
46029;DHT22;31763;48.180;7.904;2024-03-17T10:21:43;10.10;99.90
46029;DHT22;31763;48.180;7.904;2024-03-17T10:24:18;10.00;99.90
46029;DHT22;31763;48.180;7.904;2024-03-17T10:27:03;10.00;99.90
46029;DHT22;31763;48.180;7.904;2024-03-17T10:29:34;10.00;99.90
46029;DHT22;31763;48.180;7.904;2024-03-17T10:32:14;10.00;99.90
46029;DHT22;31763;48.180;7.904;2024-03-17T10:34:44;10.00;99.90
46029;DHT22;31763;48.180;7.904;2024-03-17T10:37:14;9.90;99.90
46029;DHT22;31763;48.180;7.904;2024-03-17T10:39:46;10.10;99.90
46029;DHT22;31763;48.180;7.904;2024-03-17T10:42:27;10.10;99.90
46029;DHT22;31763;48.180;7.904;2024-03-17T10:44:58;10.20;99.90
46029;DHT22;31763;48.180;7.904;2024-03-17T10:47:25;10.10;99.90
46029;DHT22;31763;48.180;7.904;2024-03-17T10:49:55;10.00;99.90
46029;DHT22;31763;48.180;7.904;2024-03-17T10:52:22;10.00;99.90
46029;DHT22;31763;48.180;7.904;2024-03-17T10:54:55;10.10;99.90
46029;DHT22;31763;48.180;7.904;2024-03-17T10:57:27;10.20;99.90
46029;DHT22;31763;48.180;7.904;2024-03-17T11:00:03;10.20;99.90
46029;DHT22;31763;48.180;7.904;2024-03-17T11:02:34;10.10;99.90
46029;DHT22;31763;48.180;7.904;2024-03-17T11:05:22;10.20;99.90
46029;DHT22;31763;48.180;7.904;2024-03-17T11:07:51;10.40;99.90
46029;DHT22;31763;48.180;7.904;2024-03-17T11:10:23;10.40;99.90
46029;DHT22;31763;48.180;7.904;2024-03-17T11:17:49;10.20;99.90
46029;DHT22;31763;48.180;7.904;2024-03-17T11:20:27;10.30;99.90
46029;DHT22;31763;48.180;7.904;2024-03-17T11:23:00;10.40;99.90
46029;DHT22;31763;48.180;7.904;2024-03-17T11:27:53;10.40;99.90
46029;DHT22;31763;48.180;7.904;2024-03-17T11:39:07;10.70;99.90
46029;DHT22;31763;48.180;7.904;2024-03-17T11:41:48;10.60;99.90
46029;DHT22;31763;48.180;7.904;2024-03-17T11:46:57;10.50;99.90
46029;DHT22;31763;48.180;7.904;2024-03-17T11:51:56;10.90;99.90
46029;DHT22;31763;48.180;7.904;2024-03-17T11:54:25;11.00;99.90
46029;DHT22;31763;48.180;7.904;2024-03-17T11:56:54;10.80;99.90
46029;DHT22;31763;48.180;7.904;2024-03-17T11:59:28;10.90;99.90
46029;DHT22;31763;48.180;7.904;2024-03-17T12:01:55;11.10;99.90
46029;DHT22;31763;48.180;7.904;2024-03-17T12:04:22;11.10;99.90
46029;DHT22;31763;48.180;7.904;2024-03-17T12:06:55;11.00;99.90
46029;DHT22;31763;48.180;7.904;2024-03-17T12:09:27;10.70;99.90
46029;DHT22;31763;48.180;7.904;2024-03-17T12:12:04;10.90;99.90
46029;DHT22;31763;48.180;7.904;2024-03-17T12:14:32;10.90;99.90
46029;DHT22;31763;48.180;7.904;2024-03-17T12:17:04;11.10;99.90
46029;DHT22;31763;48.180;7.904;2024-03-17T12:19:33;11.20;99.90
46029;DHT22;31763;48.180;7.904;2024-03-17T12:22:03;11.00;99.90
46029;DHT22;31763;48.180;7.904;2024-03-17T12:24:32;10.90;99.90
46029;DHT22;31763;48.180;7.904;2024-03-17T12:27:00;10.90;99.90
46029;DHT22;31763;48.180;7.904;2024-03-17T12:29:39;11.00;99.90
46029;DHT22;31763;48.180;7.904;2024-03-17T12:37:23;10.80;99.90
46029;DHT22;31763;48.180;7.904;2024-03-17T12:39:54;10.90;99.90
46029;DHT22;31763;48.180;7.904;2024-03-17T12:42:23;11.00;99.90
46029;DHT22;31763;48.180;7.904;2024-03-17T12:44:56;11.20;99.90
46029;DHT22;31763;48.180;7.904;2024-03-17T12:47:24;11.30;99.90
46029;DHT22;31763;48.180;7.904;2024-03-17T12:49:56;11.30;99.90
46029;DHT22;31763;48.180;7.904;2024-03-17T12:52:27;11.40;99.90
46029;DHT22;31763;48.180;7.904;2024-03-17T12:55:06;11.40;99.90
46029;DHT22;31763;48.180;7.904;2024-03-17T12:57:53;11.40;99.90
46029;DHT22;31763;48.180;7.904;2024-03-17T13:01:03;11.50;99.90
46029;DHT22;31763;48.180;7.904;2024-03-17T13:03:37;11.60;99.90
46029;DHT22;31763;48.180;7.904;2024-03-17T13:06:06;11.60;99.90
46029;DHT22;31763;48.180;7.904;2024-03-17T13:08:35;11.40;99.90
46029;DHT22;31763;48.180;7.904;2024-03-17T13:11:01;11.60;99.90
46029;DHT22;31763;48.180;7.904;2024-03-17T13:13:31;11.60;99.90
46029;DHT22;31763;48.180;7.904;2024-03-17T13:15:57;11.60;99.90
46029;DHT22;31763;48.180;7.904;2024-03-17T13:18:24;11.70;99.90
46029;DHT22;31763;48.180;7.904;2024-03-17T13:20:50;11.80;99.90
46029;DHT22;31763;48.180;7.904;2024-03-17T13:23:17;11.60;99.90
46029;DHT22;31763;48.180;7.904;2024-03-17T13:25:44;11.50;99.90
46029;DHT22;31763;48.180;7.904;2024-03-17T13:28:10;11.40;99.90
46029;DHT22;31763;48.180;7.904;2024-03-17T13:30:37;11.40;99.90
46029;DHT22;31763;48.180;7.904;2024-03-17T13:33:04;11.30;99.90
46029;DHT22;31763;48.180;7.904;2024-03-17T13:35:38;11.30;99.90
46029;DHT22;31763;48.180;7.904;2024-03-17T13:38:09;11.20;99.90
46029;DHT22;31763;48.180;7.904;2024-03-17T13:40:36;11.10;99.90
46029;DHT22;31763;48.180;7.904;2024-03-17T13:43:03;11.20;99.90
46029;DHT22;31763;48.180;7.904;2024-03-17T13:45:37;11.30;99.90
46029;DHT22;31763;48.180;7.904;2024-03-17T13:48:04;11.40;99.90
46029;DHT22;31763;48.180;7.904;2024-03-17T13:50:31;11.50;99.90
46029;DHT22;31763;48.180;7.904;2024-03-17T13:52:57;11.50;99.90
46029;DHT22;31763;48.180;7.904;2024-03-17T13:55:25;11.60;99.90
46029;DHT22;31763;48.180;7.904;2024-03-17T13:57:54;11.80;99.90
46029;DHT22;31763;48.180;7.904;2024-03-17T14:00:22;11.80;99.90
46029;DHT22;31763;48.180;7.904;2024-03-17T14:02:50;11.60;99.90
46029;DHT22;31763;48.180;7.904;2024-03-17T14:05:19;11.70;99.90
